sensor_id;sensor_type;location;lat;lon;timestamp;P1;durP1;ratioP1;P2;durP2;ratioP2
64799;SDS011;51233;51.982;4.594;2024-01-27T00:02:10;9.00;;;3.10;;
64799;SDS011;51233;51.982;4.594;2024-01-27T00:05:10;7.97;;;2.37;;
64799;SDS011;51233;51.982;4.594;2024-01-27T00:08:11;11.63;;;2.73;;
64799;SDS011;51233;51.982;4.594;2024-01-27T00:11:11;16.67;;;2.90;;
64799;SDS011;51233;51.982;4.594;2024-01-27T00:14:11;6.83;;;2.60;;
64799;SDS011;51233;51.982;4.594;2024-01-27T00:17:12;9.10;;;3.07;;
64799;SDS011;51233;51.982;4.594;2024-01-27T00:20:12;9.87;;;2.87;;
64799;SDS011;51233;51.982;4.594;2024-01-27T00:23:12;11.70;;;3.50;;
64799;SDS011;51233;51.982;4.594;2024-01-27T00:26:12;7.78;;;2.88;;
64799;SDS011;51233;51.982;4.594;2024-01-27T00:29:12;9.77;;;2.97;;
64799;SDS011;51233;51.982;4.594;2024-01-27T00:32:13;11.63;;;3.17;;
64799;SDS011;51233;51.982;4.594;2024-01-27T00:35:13;15.80;;;3.42;;
64799;SDS011;51233;51.982;4.594;2024-01-27T00:38:14;11.07;;;3.63;;
64799;SDS011;51233;51.982;4.594;2024-01-27T00:41:17;9.83;;;2.80;;
64799;SDS011;51233;51.982;4.594;2024-01-27T00:44:18;11.13;;;2.85;;
64799;SDS011;51233;51.982;4.594;2024-01-27T00:47:18;10.50;;;3.23;;
64799;SDS011;51233;51.982;4.594;2024-01-27T00:50:18;11.80;;;2.93;;
64799;SDS011;51233;51.982;4.594;2024-01-27T00:53:19;10.00;;;3.13;;
64799;SDS011;51233;51.982;4.594;2024-01-27T00:56:19;12.27;;;3.30;;
64799;SDS011;51233;51.982;4.594;2024-01-27T00:59:19;6.93;;;2.63;;
64799;SDS011;51233;51.982;4.594;2024-01-27T01:02:19;8.83;;;3.03;;
64799;SDS011;51233;51.982;4.594;2024-01-27T01:05:19;13.20;;;3.40;;
64799;SDS011;51233;51.982;4.594;2024-01-27T01:08:20;9.07;;;2.75;;
64799;SDS011;51233;51.982;4.594;2024-01-27T01:11:20;7.87;;;3.07;;
64799;SDS011;51233;51.982;4.594;2024-01-27T01:14:20;9.70;;;2.93;;
64799;SDS011;51233;51.982;4.594;2024-01-27T01:17:21;8.67;;;3.23;;
64799;SDS011;51233;51.982;4.594;2024-01-27T01:20:21;9.13;;;2.73;;
64799;SDS011;51233;51.982;4.594;2024-01-27T01:23:21;6.53;;;2.90;;
64799;SDS011;51233;51.982;4.594;2024-01-27T01:26:22;9.37;;;3.37;;
64799;SDS011;51233;51.982;4.594;2024-01-27T01:29:22;11.73;;;3.00;;
64799;SDS011;51233;51.982;4.594;2024-01-27T01:32:22;9.55;;;2.72;;
64799;SDS011;51233;51.982;4.594;2024-01-27T01:35:22;11.18;;;2.83;;
64799;SDS011;51233;51.982;4.594;2024-01-27T01:38:23;7.85;;;2.90;;
64799;SDS011;51233;51.982;4.594;2024-01-27T01:41:23;11.13;;;3.70;;
64799;SDS011;51233;51.982;4.594;2024-01-27T01:44:25;12.37;;;3.67;;
64799;SDS011;51233;51.982;4.594;2024-01-27T01:47:28;10.07;;;3.22;;
64799;SDS011;51233;51.982;4.594;2024-01-27T01:50:29;12.73;;;2.73;;
64799;SDS011;51233;51.982;4.594;2024-01-27T01:53:29;10.40;;;3.13;;
64799;SDS011;51233;51.982;4.594;2024-01-27T01:56:29;9.68;;;2.65;;
64799;SDS011;51233;51.982;4.594;2024-01-27T01:59:30;10.07;;;2.83;;
64799;SDS011;51233;51.982;4.594;2024-01-27T02:02:30;15.27;;;3.35;;
64799;SDS011;51233;51.982;4.594;2024-01-27T02:05:30;9.77;;;3.13;;
64799;SDS011;51233;51.982;4.594;2024-01-27T02:08:31;9.37;;;2.90;;
64799;SDS011;51233;51.982;4.594;2024-01-27T02:11:31;9.64;;;2.80;;
64799;SDS011;51233;51.982;4.594;2024-01-27T02:14:31;7.47;;;2.30;;
64799;SDS011;51233;51.982;4.594;2024-01-27T02:17:31;7.57;;;2.75;;
64799;SDS011;51233;51.982;4.594;2024-01-27T02:20:31;7.60;;;2.63;;
64799;SDS011;51233;51.982;4.594;2024-01-27T02:23:32;6.80;;;2.87;;
64799;SDS011;51233;51.982;4.594;2024-01-27T02:26:32;7.72;;;2.70;;
64799;SDS011;51233;51.982;4.594;2024-01-27T02:29:32;8.27;;;2.72;;
64799;SDS011;51233;51.982;4.594;2024-01-27T02:32:32;10.63;;;2.73;;
64799;SDS011;51233;51.982;4.594;2024-01-27T02:35:32;7.32;;;2.65;;
64799;SDS011;51233;51.982;4.594;2024-01-27T02:38:33;8.70;;;2.97;;
64799;SDS011;51233;51.982;4.594;2024-01-27T02:41:33;7.67;;;2.50;;
64799;SDS011;51233;51.982;4.594;2024-01-27T02:44:38;6.90;;;2.30;;
64799;SDS011;51233;51.982;4.594;2024-01-27T02:47:38;7.13;;;2.80;;
64799;SDS011;51233;51.982;4.594;2024-01-27T02:50:39;10.73;;;2.90;;
64799;SDS011;51233;51.982;4.594;2024-01-27T02:53:39;7.78;;;2.75;;
64799;SDS011;51233;51.982;4.594;2024-01-27T02:56:39;8.43;;;2.20;;
64799;SDS011;51233;51.982;4.594;2024-01-27T02:59:39;9.40;;;3.03;;
64799;SDS011;51233;51.982;4.594;2024-01-27T03:02:40;9.35;;;2.92;;
64799;SDS011;51233;51.982;4.594;2024-01-27T03:05:40;10.73;;;3.20;;
64799;SDS011;51233;51.982;4.594;2024-01-27T03:08:40;11.00;;;2.90;;
64799;SDS011;51233;51.982;4.594;2024-01-27T03:11:40;8.55;;;2.47;;
64799;SDS011;51233;51.982;4.594;2024-01-27T03:14:41;8.23;;;3.00;;
64799;SDS011;51233;51.982;4.594;2024-01-27T03:17:41;10.35;;;2.70;;
64799;SDS011;51233;51.982;4.594;2024-01-27T03:20:41;7.15;;;2.60;;
64799;SDS011;51233;51.982;4.594;2024-01-27T03:23:42;12.63;;;3.20;;
64799;SDS011;51233;51.982;4.594;2024-01-27T03:26:42;7.43;;;2.72;;
64799;SDS011;51233;51.982;4.594;2024-01-27T03:29:42;8.73;;;2.97;;
64799;SDS011;51233;51.982;4.594;2024-01-27T03:32:42;9.10;;;3.15;;
64799;SDS011;51233;51.982;4.594;2024-01-27T03:35:42;9.20;;;3.70;;
64799;SDS011;51233;51.982;4.594;2024-01-27T03:38:43;13.55;;;3.53;;
64799;SDS011;51233;51.982;4.594;2024-01-27T03:41:43;11.63;;;3.77;;
64799;SDS011;51233;51.982;4.594;2024-01-27T03:44:43;12.56;;;4.10;;
64799;SDS011;51233;51.982;4.594;2024-01-27T03:47:43;9.80;;;3.80;;
64799;SDS011;51233;51.982;4.594;2024-01-27T03:50:43;11.85;;;3.88;;
64799;SDS011;51233;51.982;4.594;2024-01-27T03:53:44;7.45;;;3.60;;
64799;SDS011;51233;51.982;4.594;2024-01-27T03:56:45;12.80;;;4.33;;
64799;SDS011;51233;51.982;4.594;2024-01-27T03:59:45;9.37;;;3.77;;
64799;SDS011;51233;51.982;4.594;2024-01-27T04:02:46;13.00;;;3.83;;
64799;SDS011;51233;51.982;4.594;2024-01-27T04:05:46;14.30;;;4.70;;
64799;SDS011;51233;51.982;4.594;2024-01-27T04:08:46;11.93;;;4.37;;
64799;SDS011;51233;51.982;4.594;2024-01-27T04:11:46;9.70;;;3.88;;
64799;SDS011;51233;51.982;4.594;2024-01-27T04:14:47;11.32;;;4.65;;
64799;SDS011;51233;51.982;4.594;2024-01-27T04:17:47;12.27;;;4.22;;
64799;SDS011;51233;51.982;4.594;2024-01-27T04:20:47;14.35;;;4.75;;
64799;SDS011;51233;51.982;4.594;2024-01-27T04:23:48;11.03;;;4.73;;
64799;SDS011;51233;51.982;4.594;2024-01-27T04:26:48;10.68;;;4.75;;
64799;SDS011;51233;51.982;4.594;2024-01-27T04:29:49;13.13;;;4.63;;
64799;SDS011;51233;51.982;4.594;2024-01-27T04:32:49;9.63;;;4.27;;
64799;SDS011;51233;51.982;4.594;2024-01-27T04:35:50;10.90;;;4.80;;
64799;SDS011;51233;51.982;4.594;2024-01-27T04:38:50;10.53;;;4.43;;
64799;SDS011;51233;51.982;4.594;2024-01-27T04:41:50;10.60;;;4.57;;
64799;SDS011;51233;51.982;4.594;2024-01-27T04:44:50;12.47;;;4.80;;
64799;SDS011;51233;51.982;4.594;2024-01-27T04:47:50;13.73;;;5.07;;
64799;SDS011;51233;51.982;4.594;2024-01-27T04:50:51;12.57;;;4.70;;
64799;SDS011;51233;51.982;4.594;2024-01-27T04:53:51;11.63;;;5.03;;
64799;SDS011;51233;51.982;4.594;2024-01-27T04:56:51;10.07;;;4.80;;
64799;SDS011;51233;51.982;4.594;2024-01-27T04:59:51;9.35;;;4.45;;
64799;SDS011;51233;51.982;4.594;2024-01-27T05:02:51;8.60;;;4.23;;
64799;SDS011;51233;51.982;4.594;2024-01-27T05:05:52;10.13;;;4.43;;
64799;SDS011;51233;51.982;4.594;2024-01-27T05:08:52;14.77;;;5.22;;
64799;SDS011;51233;51.982;4.594;2024-01-27T05:11:52;12.00;;;4.88;;
64799;SDS011;51233;51.982;4.594;2024-01-27T05:14:53;11.13;;;4.50;;
64799;SDS011;51233;51.982;4.594;2024-01-27T05:17:53;11.95;;;4.53;;
64799;SDS011;51233;51.982;4.594;2024-01-27T05:20:54;12.38;;;4.72;;
64799;SDS011;51233;51.982;4.594;2024-01-27T05:23:54;10.20;;;4.60;;
64799;SDS011;51233;51.982;4.594;2024-01-27T05:26:54;15.90;;;4.83;;
64799;SDS011;51233;51.982;4.594;2024-01-27T05:29:55;15.32;;;5.22;;
64799;SDS011;51233;51.982;4.594;2024-01-27T05:32:55;12.95;;;4.85;;
64799;SDS011;51233;51.982;4.594;2024-01-27T05:35:55;12.05;;;5.10;;
64799;SDS011;51233;51.982;4.594;2024-01-27T05:38:55;12.00;;;4.70;;
64799;SDS011;51233;51.982;4.594;2024-01-27T05:41:55;9.77;;;4.35;;
64799;SDS011;51233;51.982;4.594;2024-01-27T05:44:56;13.47;;;4.83;;
64799;SDS011;51233;51.982;4.594;2024-01-27T05:47:56;9.17;;;4.47;;
64799;SDS011;51233;51.982;4.594;2024-01-27T05:50:56;10.68;;;4.43;;
64799;SDS011;51233;51.982;4.594;2024-01-27T05:53:57;13.30;;;5.80;;
64799;SDS011;51233;51.982;4.594;2024-01-27T05:56:57;12.48;;;4.95;;
64799;SDS011;51233;51.982;4.594;2024-01-27T05:59:57;10.23;;;4.57;;
64799;SDS011;51233;51.982;4.594;2024-01-27T06:02:58;8.75;;;4.50;;
64799;SDS011;51233;51.982;4.594;2024-01-27T06:05:58;7.60;;;4.47;;
64799;SDS011;51233;51.982;4.594;2024-01-27T06:08:58;15.63;;;5.22;;
64799;SDS011;51233;51.982;4.594;2024-01-27T06:11:59;8.45;;;4.22;;
64799;SDS011;51233;51.982;4.594;2024-01-27T06:14:59;13.00;;;4.70;;
64799;SDS011;51233;51.982;4.594;2024-01-27T06:17:59;16.85;;;5.35;;
64799;SDS011;51233;51.982;4.594;2024-01-27T06:20:59;12.93;;;5.07;;
64799;SDS011;51233;51.982;4.594;2024-01-27T06:24:00;13.38;;;5.35;;
64799;SDS011;51233;51.982;4.594;2024-01-27T06:27:00;10.98;;;5.00;;
64799;SDS011;51233;51.982;4.594;2024-01-27T06:30:00;13.70;;;5.57;;
64799;SDS011;51233;51.982;4.594;2024-01-27T06:33:01;11.98;;;4.63;;
64799;SDS011;51233;51.982;4.594;2024-01-27T06:36:01;6.30;;;4.50;;
64799;SDS011;51233;51.982;4.594;2024-01-27T06:39:01;12.48;;;5.00;;
64799;SDS011;51233;51.982;4.594;2024-01-27T06:42:01;10.30;;;5.43;;
64799;SDS011;51233;51.982;4.594;2024-01-27T06:45:02;14.32;;;5.20;;
64799;SDS011;51233;51.982;4.594;2024-01-27T06:48:02;15.18;;;5.53;;
64799;SDS011;51233;51.982;4.594;2024-01-27T06:51:03;14.02;;;5.55;;
64799;SDS011;51233;51.982;4.594;2024-01-27T06:54:03;15.37;;;5.50;;
64799;SDS011;51233;51.982;4.594;2024-01-27T06:57:03;14.60;;;5.23;;
64799;SDS011;51233;51.982;4.594;2024-01-27T07:00:04;11.98;;;4.72;;
64799;SDS011;51233;51.982;4.594;2024-01-27T07:03:05;7.93;;;4.32;;
64799;SDS011;51233;51.982;4.594;2024-01-27T07:06:05;7.72;;;4.50;;
64799;SDS011;51233;51.982;4.594;2024-01-27T07:09:06;15.23;;;5.30;;
64799;SDS011;51233;51.982;4.594;2024-01-27T07:12:06;11.37;;;4.80;;
64799;SDS011;51233;51.982;4.594;2024-01-27T07:15:07;8.50;;;4.50;;
64799;SDS011;51233;51.982;4.594;2024-01-27T07:18:07;10.17;;;5.20;;
64799;SDS011;51233;51.982;4.594;2024-01-27T07:21:08;12.52;;;5.10;;
64799;SDS011;51233;51.982;4.594;2024-01-27T07:24:14;11.05;;;4.97;;
64799;SDS011;51233;51.982;4.594;2024-01-27T07:27:14;10.93;;;5.53;;
64799;SDS011;51233;51.982;4.594;2024-01-27T07:30:15;14.60;;;5.03;;
64799;SDS011;51233;51.982;4.594;2024-01-27T07:33:16;13.43;;;5.00;;
64799;SDS011;51233;51.982;4.594;2024-01-27T07:36:16;9.63;;;4.77;;
64799;SDS011;51233;51.982;4.594;2024-01-27T07:39:16;10.70;;;4.93;;
64799;SDS011;51233;51.982;4.594;2024-01-27T07:42:16;10.50;;;5.07;;
64799;SDS011;51233;51.982;4.594;2024-01-27T07:45:16;12.65;;;5.60;;
64799;SDS011;51233;51.982;4.594;2024-01-27T07:48:17;14.03;;;5.17;;
64799;SDS011;51233;51.982;4.594;2024-01-27T07:51:17;16.20;;;5.10;;
64799;SDS011;51233;51.982;4.594;2024-01-27T07:54:17;10.60;;;5.15;;
64799;SDS011;51233;51.982;4.594;2024-01-27T07:57:17;7.77;;;4.50;;
64799;SDS011;51233;51.982;4.594;2024-01-27T08:00:17;10.32;;;5.05;;
64799;SDS011;51233;51.982;4.594;2024-01-27T08:03:17;13.00;;;5.20;;
64799;SDS011;51233;51.982;4.594;2024-01-27T08:06:18;10.73;;;4.68;;
64799;SDS011;51233;51.982;4.594;2024-01-27T08:09:19;10.05;;;5.05;;
64799;SDS011;51233;51.982;4.594;2024-01-27T08:12:19;11.87;;;5.33;;
64799;SDS011;51233;51.982;4.594;2024-01-27T08:15:19;12.05;;;5.65;;
64799;SDS011;51233;51.982;4.594;2024-01-27T08:18:20;12.10;;;5.90;;
64799;SDS011;51233;51.982;4.594;2024-01-27T08:21:20;11.73;;;5.50;;
64799;SDS011;51233;51.982;4.594;2024-01-27T08:24:20;13.20;;;5.43;;
64799;SDS011;51233;51.982;4.594;2024-01-27T08:30:22;12.38;;;5.53;;
64799;SDS011;51233;51.982;4.594;2024-01-27T08:33:22;11.33;;;5.90;;
64799;SDS011;51233;51.982;4.594;2024-01-27T08:36:23;11.90;;;5.50;;
64799;SDS011;51233;51.982;4.594;2024-01-27T08:39:23;13.80;;;5.93;;
64799;SDS011;51233;51.982;4.594;2024-01-27T08:42:23;15.03;;;5.57;;
64799;SDS011;51233;51.982;4.594;2024-01-27T08:45:23;13.47;;;6.07;;
64799;SDS011;51233;51.982;4.594;2024-01-27T08:48:24;14.03;;;5.37;;
64799;SDS011;51233;51.982;4.594;2024-01-27T08:51:24;10.80;;;5.05;;
64799;SDS011;51233;51.982;4.594;2024-01-27T08:54:24;11.77;;;5.50;;
64799;SDS011;51233;51.982;4.594;2024-01-27T08:57:25;11.13;;;5.27;;
64799;SDS011;51233;51.982;4.594;2024-01-27T09:00:25;2.50;;;1.73;;
64799;SDS011;51233;51.982;4.594;2024-01-27T09:03:25;11.18;;;5.35;;
64799;SDS011;51233;51.982;4.594;2024-01-27T09:06:26;11.80;;;5.22;;
64799;SDS011;51233;51.982;4.594;2024-01-27T09:09:27;12.70;;;6.00;;
64799;SDS011;51233;51.982;4.594;2024-01-27T09:12:29;17.73;;;6.57;;
64799;SDS011;51233;51.982;4.594;2024-01-27T09:15:29;12.30;;;5.50;;
64799;SDS011;51233;51.982;4.594;2024-01-27T09:18:29;14.40;;;5.70;;
64799;SDS011;51233;51.982;4.594;2024-01-27T09:21:29;9.83;;;5.40;;
64799;SDS011;51233;51.982;4.594;2024-01-27T09:24:30;11.85;;;5.57;;
64799;SDS011;51233;51.982;4.594;2024-01-27T09:27:30;12.60;;;5.77;;
64799;SDS011;51233;51.982;4.594;2024-01-27T09:30:31;11.85;;;5.40;;
64799;SDS011;51233;51.982;4.594;2024-01-27T09:33:31;15.20;;;6.13;;
64799;SDS011;51233;51.982;4.594;2024-01-27T09:36:34;12.75;;;5.93;;
64799;SDS011;51233;51.982;4.594;2024-01-27T09:39:35;10.67;;;5.47;;
64799;SDS011;51233;51.982;4.594;2024-01-27T09:42:35;14.57;;;5.10;;
64799;SDS011;51233;51.982;4.594;2024-01-27T09:45:39;14.73;;;5.45;;
64799;SDS011;51233;51.982;4.594;2024-01-27T09:48:39;15.50;;;5.20;;
64799;SDS011;51233;51.982;4.594;2024-01-27T09:51:43;14.53;;;4.90;;
64799;SDS011;51233;51.982;4.594;2024-01-27T09:54:43;9.27;;;5.00;;
64799;SDS011;51233;51.982;4.594;2024-01-27T09:57:43;13.53;;;5.33;;
64799;SDS011;51233;51.982;4.594;2024-01-27T10:00:44;13.13;;;5.10;;
64799;SDS011;51233;51.982;4.594;2024-01-27T10:03:45;9.13;;;4.33;;
64799;SDS011;51233;51.982;4.594;2024-01-27T10:06:45;9.17;;;4.53;;
64799;SDS011;51233;51.982;4.594;2024-01-27T10:12:47;15.50;;;5.57;;
64799;SDS011;51233;51.982;4.594;2024-01-27T10:15:49;9.73;;;4.95;;
64799;SDS011;51233;51.982;4.594;2024-01-27T10:19:02;16.50;;;5.40;;
64799;SDS011;51233;51.982;4.594;2024-01-27T10:22:02;15.95;;;5.63;;
64799;SDS011;51233;51.982;4.594;2024-01-27T10:25:02;12.97;;;5.03;;
64799;SDS011;51233;51.982;4.594;2024-01-27T10:28:04;12.97;;;4.77;;
64799;SDS011;51233;51.982;4.594;2024-01-27T10:31:11;14.80;;;5.00;;
64799;SDS011;51233;51.982;4.594;2024-01-27T10:34:11;11.15;;;4.75;;
64799;SDS011;51233;51.982;4.594;2024-01-27T10:37:15;11.55;;;4.97;;
64799;SDS011;51233;51.982;4.594;2024-01-27T10:40:15;14.03;;;4.33;;
64799;SDS011;51233;51.982;4.594;2024-01-27T10:43:16;14.50;;;4.50;;
64799;SDS011;51233;51.982;4.594;2024-01-27T10:46:18;10.25;;;4.18;;
64799;SDS011;51233;51.982;4.594;2024-01-27T10:49:19;12.05;;;4.70;;
64799;SDS011;51233;51.982;4.594;2024-01-27T10:52:20;16.60;;;4.57;;
64799;SDS011;51233;51.982;4.594;2024-01-27T10:55:22;19.88;;;5.13;;
64799;SDS011;51233;51.982;4.594;2024-01-27T10:58:23;12.80;;;4.43;;
64799;SDS011;51233;51.982;4.594;2024-01-27T11:01:23;13.73;;;4.73;;
64799;SDS011;51233;51.982;4.594;2024-01-27T11:04:24;12.93;;;4.80;;
64799;SDS011;51233;51.982;4.594;2024-01-27T11:07:24;13.33;;;4.67;;
64799;SDS011;51233;51.982;4.594;2024-01-27T11:10:25;11.60;;;4.23;;
64799;SDS011;51233;51.982;4.594;2024-01-27T11:13:30;16.55;;;5.30;;
64799;SDS011;51233;51.982;4.594;2024-01-27T11:16:33;18.85;;;5.15;;
64799;SDS011;51233;51.982;4.594;2024-01-27T11:19:34;11.20;;;4.88;;
64799;SDS011;51233;51.982;4.594;2024-01-27T11:22:34;14.33;;;5.53;;
64799;SDS011;51233;51.982;4.594;2024-01-27T11:25:34;18.07;;;5.93;;
64799;SDS011;51233;51.982;4.594;2024-01-27T11:28:35;16.33;;;5.85;;
64799;SDS011;51233;51.982;4.594;2024-01-27T11:31:36;15.90;;;5.70;;
64799;SDS011;51233;51.982;4.594;2024-01-27T11:34:46;14.90;;;5.07;;
64799;SDS011;51233;51.982;4.594;2024-01-27T11:37:47;10.43;;;4.68;;
64799;SDS011;51233;51.982;4.594;2024-01-27T11:40:48;17.70;;;5.53;;
64799;SDS011;51233;51.982;4.594;2024-01-27T11:43:53;16.83;;;5.82;;
64799;SDS011;51233;51.982;4.594;2024-01-27T11:46:53;14.82;;;5.70;;
64799;SDS011;51233;51.982;4.594;2024-01-27T11:49:55;19.80;;;6.07;;
64799;SDS011;51233;51.982;4.594;2024-01-27T11:52:56;15.82;;;5.88;;
64799;SDS011;51233;51.982;4.594;2024-01-27T11:55:57;15.35;;;5.53;;
64799;SDS011;51233;51.982;4.594;2024-01-27T11:58:59;15.45;;;5.40;;
64799;SDS011;51233;51.982;4.594;2024-01-27T12:02:00;13.15;;;5.25;;
64799;SDS011;51233;51.982;4.594;2024-01-27T12:05:00;11.20;;;4.70;;
64799;SDS011;51233;51.982;4.594;2024-01-27T12:08:00;13.77;;;5.13;;
64799;SDS011;51233;51.982;4.594;2024-01-27T12:11:01;11.30;;;4.70;;
64799;SDS011;51233;51.982;4.594;2024-01-27T12:14:01;12.85;;;4.90;;
64799;SDS011;51233;51.982;4.594;2024-01-27T12:17:01;16.15;;;4.88;;
64799;SDS011;51233;51.982;4.594;2024-01-27T12:20:01;14.80;;;4.73;;
64799;SDS011;51233;51.982;4.594;2024-01-27T12:23:05;16.13;;;4.90;;
64799;SDS011;51233;51.982;4.594;2024-01-27T12:26:05;10.57;;;4.30;;
64799;SDS011;51233;51.982;4.594;2024-01-27T12:29:05;14.87;;;5.33;;
64799;SDS011;51233;51.982;4.594;2024-01-27T12:32:06;13.38;;;5.07;;
64799;SDS011;51233;51.982;4.594;2024-01-27T12:35:07;19.33;;;5.03;;
64799;SDS011;51233;51.982;4.594;2024-01-27T12:38:07;11.52;;;4.72;;
64799;SDS011;51233;51.982;4.594;2024-01-27T12:41:08;10.47;;;4.70;;
64799;SDS011;51233;51.982;4.594;2024-01-27T12:44:08;14.32;;;4.88;;
64799;SDS011;51233;51.982;4.594;2024-01-27T12:47:11;13.47;;;5.13;;
64799;SDS011;51233;51.982;4.594;2024-01-27T12:50:13;15.48;;;4.63;;
64799;SDS011;51233;51.982;4.594;2024-01-27T12:53:13;13.27;;;4.63;;
64799;SDS011;51233;51.982;4.594;2024-01-27T12:56:14;13.10;;;4.60;;
64799;SDS011;51233;51.982;4.594;2024-01-27T13:02:15;16.17;;;5.20;;
64799;SDS011;51233;51.982;4.594;2024-01-27T13:05:15;16.07;;;4.80;;
64799;SDS011;51233;51.982;4.594;2024-01-27T13:08:15;11.65;;;4.63;;
64799;SDS011;51233;51.982;4.594;2024-01-27T13:11:16;16.20;;;5.30;;
64799;SDS011;51233;51.982;4.594;2024-01-27T13:14:16;15.77;;;4.77;;
64799;SDS011;51233;51.982;4.594;2024-01-27T13:17:18;11.27;;;4.68;;
64799;SDS011;51233;51.982;4.594;2024-01-27T13:20:19;11.97;;;4.70;;
64799;SDS011;51233;51.982;4.594;2024-01-27T13:23:19;15.88;;;5.03;;
64799;SDS011;51233;51.982;4.594;2024-01-27T13:26:20;13.67;;;4.70;;
64799;SDS011;51233;51.982;4.594;2024-01-27T13:29:20;12.23;;;4.70;;
64799;SDS011;51233;51.982;4.594;2024-01-27T13:32:20;12.90;;;4.57;;
64799;SDS011;51233;51.982;4.594;2024-01-27T13:35:20;12.52;;;4.95;;
64799;SDS011;51233;51.982;4.594;2024-01-27T13:38:20;9.20;;;4.07;;
64799;SDS011;51233;51.982;4.594;2024-01-27T13:41:23;12.35;;;3.95;;
64799;SDS011;51233;51.982;4.594;2024-01-27T13:44:23;13.43;;;4.20;;
64799;SDS011;51233;51.982;4.594;2024-01-27T13:47:23;13.63;;;5.20;;
64799;SDS011;51233;51.982;4.594;2024-01-27T13:50:24;15.30;;;4.93;;
64799;SDS011;51233;51.982;4.594;2024-01-27T13:53:25;15.50;;;5.32;;
64799;SDS011;51233;51.982;4.594;2024-01-27T13:56:25;13.87;;;5.10;;
64799;SDS011;51233;51.982;4.594;2024-01-27T13:59:26;9.97;;;4.17;;
64799;SDS011;51233;51.982;4.594;2024-01-27T14:02:26;9.77;;;4.67;;
64799;SDS011;51233;51.982;4.594;2024-01-27T14:05:26;13.37;;;4.60;;
64799;SDS011;51233;51.982;4.594;2024-01-27T14:08:26;13.57;;;5.10;;
64799;SDS011;51233;51.982;4.594;2024-01-27T14:11:27;14.73;;;4.10;;
64799;SDS011;51233;51.982;4.594;2024-01-27T14:14:27;15.93;;;5.20;;
64799;SDS011;51233;51.982;4.594;2024-01-27T14:17:28;12.93;;;5.13;;
64799;SDS011;51233;51.982;4.594;2024-01-27T14:20:28;14.97;;;4.70;;
64799;SDS011;51233;51.982;4.594;2024-01-27T14:23:29;13.32;;;4.80;;
64799;SDS011;51233;51.982;4.594;2024-01-27T14:26:31;14.18;;;4.53;;
64799;SDS011;51233;51.982;4.594;2024-01-27T14:29:32;16.07;;;5.00;;
64799;SDS011;51233;51.982;4.594;2024-01-27T14:32:32;13.90;;;5.67;;
64799;SDS011;51233;51.982;4.594;2024-01-27T14:35:32;14.57;;;5.40;;
64799;SDS011;51233;51.982;4.594;2024-01-27T14:38:33;16.10;;;5.53;;
64799;SDS011;51233;51.982;4.594;2024-01-27T14:41:33;16.33;;;5.10;;
64799;SDS011;51233;51.982;4.594;2024-01-27T14:44:33;12.10;;;4.60;;
64799;SDS011;51233;51.982;4.594;2024-01-27T14:47:34;12.35;;;5.38;;
64799;SDS011;51233;51.982;4.594;2024-01-27T14:50:34;20.17;;;6.18;;
64799;SDS011;51233;51.982;4.594;2024-01-27T14:53:34;16.57;;;5.93;;
64799;SDS011;51233;51.982;4.594;2024-01-27T14:56:34;15.05;;;5.07;;
64799;SDS011;51233;51.982;4.594;2024-01-27T14:59:35;14.13;;;4.93;;
64799;SDS011;51233;51.982;4.594;2024-01-27T15:02:36;19.77;;;6.15;;
64799;SDS011;51233;51.982;4.594;2024-01-27T15:05:36;12.20;;;4.80;;
64799;SDS011;51233;51.982;4.594;2024-01-27T15:08:37;14.07;;;5.03;;
64799;SDS011;51233;51.982;4.594;2024-01-27T15:11:37;18.60;;;6.97;;
64799;SDS011;51233;51.982;4.594;2024-01-27T15:14:37;9.80;;;4.00;;
64799;SDS011;51233;51.982;4.594;2024-01-27T15:17:38;10.43;;;4.70;;
64799;SDS011;51233;51.982;4.594;2024-01-27T15:20:38;14.33;;;4.50;;
64799;SDS011;51233;51.982;4.594;2024-01-27T15:23:38;14.23;;;5.37;;
64799;SDS011;51233;51.982;4.594;2024-01-27T15:26:39;11.90;;;4.87;;
64799;SDS011;51233;51.982;4.594;2024-01-27T15:29:39;12.75;;;4.75;;
64799;SDS011;51233;51.982;4.594;2024-01-27T15:32:39;13.70;;;5.00;;
64799;SDS011;51233;51.982;4.594;2024-01-27T15:35:39;16.13;;;5.07;;
64799;SDS011;51233;51.982;4.594;2024-01-27T15:38:39;15.40;;;4.95;;
64799;SDS011;51233;51.982;4.594;2024-01-27T15:41:40;20.17;;;5.93;;
64799;SDS011;51233;51.982;4.594;2024-01-27T15:44:40;11.93;;;4.80;;
64799;SDS011;51233;51.982;4.594;2024-01-27T15:47:40;13.57;;;5.40;;
64799;SDS011;51233;51.982;4.594;2024-01-27T15:50:42;15.27;;;5.30;;
64799;SDS011;51233;51.982;4.594;2024-01-27T15:53:44;13.52;;;4.88;;
64799;SDS011;51233;51.982;4.594;2024-01-27T15:56:44;15.23;;;5.32;;
64799;SDS011;51233;51.982;4.594;2024-01-27T15:59:46;15.38;;;5.30;;
64799;SDS011;51233;51.982;4.594;2024-01-27T16:02:47;13.13;;;5.25;;
64799;SDS011;51233;51.982;4.594;2024-01-27T16:05:47;12.73;;;4.77;;
64799;SDS011;51233;51.982;4.594;2024-01-27T16:08:47;13.37;;;5.40;;
64799;SDS011;51233;51.982;4.594;2024-01-27T16:11:47;15.07;;;5.25;;
64799;SDS011;51233;51.982;4.594;2024-01-27T16:14:48;17.13;;;4.80;;
64799;SDS011;51233;51.982;4.594;2024-01-27T16:17:48;13.77;;;4.50;;
64799;SDS011;51233;51.982;4.594;2024-01-27T16:20:48;13.95;;;5.15;;
64799;SDS011;51233;51.982;4.594;2024-01-27T16:23:49;12.23;;;3.88;;
64799;SDS011;51233;51.982;4.594;2024-01-27T16:26:50;8.88;;;4.80;;
64799;SDS011;51233;51.982;4.594;2024-01-27T16:29:50;12.33;;;4.60;;
64799;SDS011;51233;51.982;4.594;2024-01-27T16:32:51;14.43;;;4.83;;
64799;SDS011;51233;51.982;4.594;2024-01-27T16:35:51;14.40;;;5.20;;
64799;SDS011;51233;51.982;4.594;2024-01-27T16:38:51;15.48;;;5.30;;
64799;SDS011;51233;51.982;4.594;2024-01-27T16:41:52;14.23;;;5.40;;
64799;SDS011;51233;51.982;4.594;2024-01-27T16:44:52;14.63;;;4.97;;
64799;SDS011;51233;51.982;4.594;2024-01-27T16:47:52;14.80;;;6.60;;
64799;SDS011;51233;51.982;4.594;2024-01-27T16:50:52;17.60;;;7.07;;
64799;SDS011;51233;51.982;4.594;2024-01-27T16:53:53;18.90;;;8.43;;
64799;SDS011;51233;51.982;4.594;2024-01-27T16:56:53;17.00;;;7.20;;
64799;SDS011;51233;51.982;4.594;2024-01-27T16:59:56;14.57;;;7.18;;
64799;SDS011;51233;51.982;4.594;2024-01-27T17:02:56;16.93;;;7.03;;
64799;SDS011;51233;51.982;4.594;2024-01-27T17:05:57;19.23;;;9.00;;
64799;SDS011;51233;51.982;4.594;2024-01-27T17:08:59;18.65;;;7.13;;
64799;SDS011;51233;51.982;4.594;2024-01-27T17:15:01;16.25;;;6.78;;
64799;SDS011;51233;51.982;4.594;2024-01-27T17:18:02;18.00;;;6.90;;
64799;SDS011;51233;51.982;4.594;2024-01-27T17:21:02;23.33;;;7.20;;
64799;SDS011;51233;51.982;4.594;2024-01-27T17:24:02;15.83;;;6.00;;
64799;SDS011;51233;51.982;4.594;2024-01-27T17:27:03;13.82;;;7.25;;
64799;SDS011;51233;51.982;4.594;2024-01-27T17:30:03;14.70;;;7.03;;
64799;SDS011;51233;51.982;4.594;2024-01-27T17:33:08;18.17;;;7.47;;
64799;SDS011;51233;51.982;4.594;2024-01-27T17:36:08;19.90;;;8.02;;
64799;SDS011;51233;51.982;4.594;2024-01-27T17:39:09;15.35;;;6.90;;
64799;SDS011;51233;51.982;4.594;2024-01-27T17:42:09;19.13;;;6.30;;
64799;SDS011;51233;51.982;4.594;2024-01-27T17:45:09;15.67;;;6.40;;
64799;SDS011;51233;51.982;4.594;2024-01-27T17:48:10;14.93;;;6.27;;
64799;SDS011;51233;51.982;4.594;2024-01-27T17:51:10;18.90;;;8.47;;
64799;SDS011;51233;51.982;4.594;2024-01-27T17:54:10;20.60;;;9.23;;
64799;SDS011;51233;51.982;4.594;2024-01-27T17:57:10;17.80;;;6.40;;
64799;SDS011;51233;51.982;4.594;2024-01-27T18:00:14;16.67;;;5.37;;
64799;SDS011;51233;51.982;4.594;2024-01-27T18:03:14;17.42;;;6.18;;
64799;SDS011;51233;51.982;4.594;2024-01-27T18:06:14;20.95;;;6.20;;
64799;SDS011;51233;51.982;4.594;2024-01-27T18:09:15;16.13;;;6.43;;